Time;durP1;ratioP1;P1;durP2;ratioP2;P2;SDS_P1;SDS_P2;PMS_P1;PMS_P2;Temp;Humidity;BMP_temperature;BMP_pressure;BME280_temperature;BME280_humidity;BME280_pressure;Samples;Min_cycle;Max_cycle;Signal;HPM_P1;HPM_P2
2022/09/12 00:00:35;;;;;;;4.33;2.80;;;12.20;14.50;;;;;;10452733;28;20428;-82
2022/09/12 00:05:56;;;;;;;4.20;2.47;;;12.20;10.30;;;;;;10453536;28;20231;-81
2022/09/12 00:11:18;;;;;;;3.67;2.10;;;12.10;4.90;;;;;;10399006;28;20186;-80
2022/09/12 00:16:40;;;;;;;3.37;2.43;;;12.00;18.00;;;;;;10403213;28;20521;-81
2022/09/12 00:27:59;;;;;;;4.93;2.50;;;12.00;19.60;;;;;;10190313;24;20244;-81
2022/09/12 00:33:21;;;;;;;3.90;2.37;;;12.00;9.40;;;;;;9900813;30;20562;-80
2022/09/12 00:38:44;;;;;;;4.53;2.30;;;12.00;14.80;;;;;;9916682;30;20391;-81
2022/09/12 00:44:11;;;;;;;3.67;2.30;;;12.00;1.00;;;;;;9894332;30;20253;-82
2022/09/12 00:49:44;;;;;;;4.07;2.37;;;11.90;1.70;;;;;;9879533;30;20273;-80
2022/09/12 00:55:05;;;;;;;3.30;2.37;;;11.80;4.00;;;;;;9906758;29;20404;-80
2022/09/12 01:00:27;;;;;;;2.83;2.17;;;11.80;1.00;;;;;;9935789;29;20207;-79
2022/09/12 01:06:16;;;;;;;3.40;2.40;;;11.70;1.00;;;;;;9915940;30;20453;-81
2022/09/12 01:11:39;;;;;;;3.93;2.40;;;11.70;1.00;;;;;;9927792;29;20220;-83
2022/09/12 01:17:00;;;;;;;2.83;1.90;;;11.70;2.40;;;;;;9928822;30;20198;-80
2022/09/12 01:22:47;;;;;;;3.67;2.63;;;11.70;8.00;;;;;;9928197;30;20249;-82
2022/09/12 01:28:28;;;;;;;6.77;2.33;;;11.60;17.00;;;;;;9902170;30;20275;-82
2022/09/12 01:34:10;;;;;;;6.33;3.20;;;11.70;23.20;;;;;;9915248;30;20466;-82
2022/09/12 01:40:02;;;;;;;3.80;2.40;;;11.70;15.00;;;;;;9927955;30;20393;-82
2022/09/12 01:45:42;;;;;;;3.10;2.60;;;11.80;11.30;;;;;;9902212;30;20239;-83
2022/09/12 01:51:22;;;;;;;4.33;2.63;;;11.70;22.40;;;;;;9927285;29;20257;-81
2022/09/12 01:56:48;;;;;;;3.60;2.50;;;11.70;27.60;;;;;;9914863;30;20241;-81
2022/09/12 02:02:24;;;;;;;4.37;3.00;;;11.60;40.20;;;;;;9912132;30;20210;-81
2022/09/12 02:07:52;;;;;;;4.63;2.53;;;11.60;83.10;;;;;;9927030;30;20233;-82
2022/09/12 02:13:31;;;;;;;6.00;2.40;;;11.60;99.90;;;;;;9914425;30;20208;-81
2022/09/12 02:18:57;;;;;;;4.57;2.53;;;11.60;99.90;;;;;;9927269;30;20194;-81
2022/09/12 02:24:21;;;;;;;2.83;2.17;;;11.60;99.90;;;;;;9930509;29;20648;-81
2022/09/12 02:29:44;;;;;;;5.53;2.53;;;11.60;99.90;;;;;;9921113;30;20207;-81
2022/09/12 02:35:30;;;;;;;4.50;2.87;;;11.60;99.90;;;;;;9921504;30;20203;-82
2022/09/12 02:40:51;;;;;;;3.83;2.70;;;11.60;99.90;;;;;;9933780;30;20237;-81
2022/09/12 02:46:27;;;;;;;3.07;2.30;;;11.60;99.90;;;;;;9920481;30;20310;-82
2022/09/12 02:51:48;;;;;;;3.23;2.47;;;11.60;99.90;;;;;;9933345;30;20200;-82
2022/09/12 02:57:19;;;;;;;5.53;2.63;;;11.60;99.90;;;;;;9907658;30;20211;-81
2022/09/12 03:02:51;;;;;;;4.30;2.57;;;11.60;99.90;;;;;;9933273;30;20207;-82
2022/09/12 03:08:17;;;;;;;4.13;2.47;;;11.60;99.90;;;;;;9920415;30;20250;-83
2022/09/12 03:13:54;;;;;;;6.17;2.60;;;11.70;99.90;;;;;;9933837;29;20223;-84
2022/09/12 03:19:34;;;;;;;4.03;2.67;;;11.60;99.90;;;;;;9932151;29;20586;-81
2022/09/12 03:25:10;;;;;;;4.47;2.17;;;11.60;99.90;;;;;;9919428;30;20481;-84
2022/09/12 03:30:40;;;;;;;4.50;2.30;;;11.60;99.90;;;;;;9932125;30;20491;-82
2022/09/12 03:36:02;;;;;;;5.73;2.77;;;11.60;99.90;;;;;;9931153;29;20231;-82
2022/09/12 03:41:23;;;;;;;3.07;2.57;;;11.60;99.90;;;;;;9932132;30;20286;-83
2022/09/12 03:46:45;;;;;;;3.83;2.90;;;11.60;99.90;;;;;;9918732;30;20234;-83
2022/09/12 03:52:06;;;;;;;4.80;3.40;;;11.60;96.20;;;;;;9918712;30;20253;-83
2022/09/12 03:57:27;;;;;;;3.20;2.60;;;11.60;99.90;;;;;;9906001;30;20274;-83
2022/09/12 04:02:53;;;;;;;5.37;3.10;;;11.50;99.90;;;;;;9931134;30;20198;-83
2022/09/12 04:08:15;;;;;;;3.47;2.70;;;11.50;99.90;;;;;;9918960;30;20238;-83
2022/09/12 04:13:37;;;;;;;4.20;2.53;;;11.50;99.90;;;;;;9921245;30;20203;-83
2022/09/12 04:18:59;;;;;;;6.10;2.93;;;11.50;99.90;;;;;;9933573;30;20206;-83
2022/09/12 04:24:20;;;;;;;5.00;2.67;;;11.50;99.90;;;;;;9922284;30;20236;-81
2022/09/12 04:29:41;;;;;;;4.87;2.60;;;11.40;99.90;;;;;;9886046;30;20308;-82
2022/09/12 04:35:03;;;;;;;4.97;3.30;;;11.40;99.90;;;;;;9880844;30;20229;-83
2022/09/12 04:40:25;;;;;;;4.67;2.93;;;11.30;99.90;;;;;;9892919;30;20207;-83
2022/09/12 04:45:46;;;;;;;4.20;2.77;;;11.30;99.90;;;;;;9879968;30;20537;-83
2022/09/12 04:51:22;;;;;;;8.23;4.20;;;11.40;99.90;;;;;;9880221;30;20233;-83
2022/09/12 04:56:46;;;;;;;10.83;6.10;;;11.40;99.90;;;;;;9905995;30;20302;-83
2022/09/12 05:02:07;;;;;;;8.37;4.53;;;11.50;99.90;;;;;;9916848;30;20396;-83
2022/09/12 05:07:28;;;;;;;6.80;3.40;;;11.60;99.90;;;;;;9931602;29;20243;-81
2022/09/12 05:12:50;;;;;;;8.47;4.10;;;11.60;99.90;;;;;;9929625;30;20199;-82
2022/09/12 05:18:11;;;;;;;9.93;5.13;;;11.70;99.90;;;;;;9930526;29;20302;-80
2022/09/12 05:23:33;;;;;;;7.20;4.23;;;11.70;99.90;;;;;;9915349;30;20604;-80
2022/09/12 05:28:54;;;;;;;6.73;4.00;;;11.80;99.90;;;;;;9927033;29;20234;-83
2022/09/12 05:34:15;;;;;;;6.27;3.57;;;11.80;99.90;;;;;;9915310;30;20207;-82
2022/09/12 05:39:36;;;;;;;4.27;2.93;;;11.90;99.90;;;;;;9927797;30;20234;-83
2022/09/12 05:44:58;;;;;;;3.47;2.50;;;12.00;99.90;;;;;;9914551;30;20231;-82
2022/09/12 05:50:19;;;;;;;7.40;3.67;;;12.10;99.90;;;;;;9926908;30;20504;-84
2022/09/12 05:55:41;;;;;;;10.07;3.00;;;12.20;99.90;;;;;;9914493;30;20200;-83
2022/09/12 06:01:06;;;;;;;3.80;2.53;;;12.40;99.90;;;;;;9935286;29;20204;-81
2022/09/12 06:06:29;;;;;;;3.50;2.50;;;12.40;99.90;;;;;;9936002;29;20239;-80
2022/09/12 06:11:50;;;;;;;4.17;2.80;;;12.60;99.90;;;;;;9922228;30;20228;-83
2022/09/12 06:17:11;;;;;;;5.40;2.40;;;12.60;99.90;;;;;;9934673;30;20313;-82
2022/09/12 06:22:33;;;;;;;6.90;2.53;;;12.80;99.90;;;;;;9934573;30;20204;-82
2022/09/12 06:27:54;;;;;;;6.93;2.67;;;13.00;99.90;;;;;;9917638;29;20249;-82
2022/09/12 06:33:16;;;;;;;2.60;2.23;;;13.10;99.90;;;;;;9921282;30;20215;-83
2022/09/12 06:38:37;;;;;;;2.47;1.80;;;13.40;99.90;;;;;;9908766;30;20222;-83
2022/09/12 06:43:59;;;;;;;2.85;2.10;;;15.10;99.90;;;;;;9934546;29;20280;-82
2022/09/12 06:49:21;;;;;;;3.38;1.85;;;17.00;99.90;;;;;;9920594;30;20292;-80
2022/09/12 06:54:42;;;;;;;3.17;1.60;;;;;;;;;;9903786;29;20554;-78
2022/09/12 07:00:05;;;;;;;5.53;1.60;;;19.90;24.00;;;;;;9907235;30;20296;-79
2022/09/12 07:05:26;;;;;;;5.28;1.40;;;21.20;77.70;;;;;;9929608;29;20530;-81
2022/09/12 17:33:31;;;;;;;29.05;15.65;;;16.60;99.90;;;;;;10744393;27;20551;-80
2022/09/12 17:38:53;;;;;;;28.80;16.25;;;16.10;99.90;;;;;;10664972;27;20290;-84
2022/09/12 17:44:14;;;;;;;28.95;16.58;;;16.00;99.90;;;;;;10585649;28;20193;-83
2022/09/12 17:49:36;;;;;;;34.33;19.02;;;15.90;99.90;;;;;;10608112;28;20227;-85
2022/09/12 17:54:58;;;;;;;37.72;21.52;;;15.90;99.90;;;;;;10569744;28;20223;-83
2022/09/12 18:02:11;;;;;;;40.42;22.65;;;15.80;99.90;;;;;;10618704;28;20215;-84
2022/09/12 18:06:02;;;;;;;36.33;20.02;;;15.70;99.90;;;;;;10568144;28;20212;-84
2022/09/12 18:11:23;;;;;;;34.50;18.92;;;15.60;99.90;;;;;;10564056;28;20240;-84
2022/09/12 18:16:46;;;;;;;32.58;18.35;;;15.40;99.90;;;;;;10563420;28;20195;-84
2022/09/12 18:22:08;;;;;;;29.15;19.48;;;15.40;99.90;;;;;;10581145;28;20194;-84
2022/09/12 18:27:29;;;;;;;36.92;22.38;;;15.30;99.90;;;;;;10565454;28;20262;-83
2022/09/12 18:32:51;;;;;;;43.58;25.98;;;15.30;99.90;;;;;;10556735;28;20314;-83
2022/09/12 18:38:12;;;;;;;39.70;25.88;;;15.40;99.90;;;;;;10583747;28;20224;-84
2022/09/12 18:43:34;;;;;;;38.95;25.33;;;15.30;99.90;;;;;;10565322;28;20280;-84
2022/09/12 18:48:56;;;;;;;41.92;26.05;;;15.20;99.90;;;;;;10536022;28;20212;-84
2022/09/12 18:54:18;;;;;;;44.40;27.30;;;15.10;99.90;;;;;;10525282;28;20200;-84
2022/09/12 18:59:39;;;;;;;40.08;26.05;;;15.00;99.90;;;;;;10551580;28;20270;-83
2022/09/12 19:05:01;;;;;;;44.28;26.15;;;15.00;99.90;;;;;;10508074;28;20202;-83
2022/09/12 19:10:23;;;;;;;31.75;19.70;;;14.80;99.90;;;;;;10496414;28;20253;-83
2022/09/12 19:15:44;;;;;;;31.85;19.45;;;14.80;99.90;;;;;;10511344;28;20196;-83
2022/09/12 19:21:09;;;;;;;34.03;19.75;;;14.70;99.90;;;;;;10520102;28;20388;-84
2022/09/12 19:26:32;;;;;;;32.53;20.40;;;14.60;99.90;;;;;;10567961;28;20198;-83
2022/09/12 19:31:55;;;;;;;30.55;17.45;;;14.60;99.90;;;;;;10574323;28;20246;-83
2022/09/12 19:37:17;;;;;;;34.00;20.63;;;14.50;99.90;;;;;;10554613;28;20512;-83
2022/09/12 19:42:39;;;;;;;29.08;14.45;;;14.30;99.90;;;;;;10538118;28;20206;-83
2022/09/12 19:48:00;;;;;;;29.95;16.88;;;14.30;99.90;;;;;;10543591;28;20197;-83
2022/09/12 19:53:22;;;;;;;25.65;15.77;;;14.20;99.90;;;;;;10545486;28;20226;-83
2022/09/12 19:58:45;;;;;;;45.13;25.70;;;14.20;99.90;;;;;;10534615;28;20202;-84
2022/09/12 20:04:07;;;;;;;72.85;37.50;;;14.10;99.90;;;;;;10534218;28;20266;-84
2022/09/12 20:09:29;;;;;;;83.10;42.65;;;14.00;99.90;;;;;;10546640;28;20571;-82
2022/09/12 20:14:50;;;;;;;60.83;35.72;;;14.00;99.90;;;;;;10545472;28;20221;-83
2022/09/12 20:20:12;;;;;;;39.35;24.63;;;14.00;99.90;;;;;;10543310;28;20215;-84
2022/09/12 20:25:33;;;;;;;28.52;19.30;;;14.00;99.90;;;;;;10521925;28;20221;-83
2022/09/12 20:31:03;;;;;;;25.83;18.65;;;13.90;99.90;;;;;;10559203;28;20243;-84
2022/09/12 20:43:40;;;;;;;48.92;28.48;;;13.80;99.90;;;;;;10604122;28;20177;-83
2022/09/12 20:49:01;;;;;;;45.92;26.65;;;13.70;99.90;;;;;;10562441;28;20202;-83
2022/09/12 20:54:23;;;;;;;41.55;24.48;;;13.60;99.90;;;;;;10544629;28;20429;-84
2022/09/12 20:59:44;;;;;;;41.92;26.23;;;13.60;99.90;;;;;;10503082;28;20201;-84
2022/09/12 21:05:06;;;;;;;43.40;25.42;;;13.40;99.90;;;;;;10523985;28;20224;-84
2022/09/12 21:10:28;;;;;;;43.40;25.45;;;13.40;99.90;;;;;;10530191;28;20590;-84
2022/09/12 21:16:00;;;;;;;41.73;24.00;;;13.30;99.90;;;;;;10532676;28;20200;-83
2022/09/12 21:21:22;;;;;;;38.25;22.98;;;13.10;99.90;;;;;;10560480;28;20200;-82
2022/09/12 21:26:43;;;;;;;48.60;24.27;;;13.00;99.90;;;;;;10543373;28;20193;-84
2022/09/12 21:32:04;;;;;;;37.43;23.73;;;12.90;99.90;;;;;;10529620;28;20271;-84
2022/09/12 21:37:27;;;;;;;50.83;23.08;;;12.90;99.90;;;;;;10546272;28;20201;-83
2022/09/12 21:42:48;;;;;;;37.80;20.57;;;12.90;99.90;;;;;;10528727;28;20512;-85
2022/09/12 21:48:11;;;;;;;38.67;22.03;;;12.80;99.90;;;;;;10529057;28;20199;-83
2022/09/12 21:53:32;;;;;;;38.10;20.50;;;12.70;99.90;;;;;;10543312;28;20231;-85
2022/09/12 21:58:54;;;;;;;37.40;20.80;;;12.70;99.90;;;;;;10531732;28;20212;-83
2022/09/12 22:04:16;;;;;;;36.20;21.37;;;12.70;99.90;;;;;;10528407;28;20216;-84
2022/09/12 22:09:38;;;;;;;44.90;22.33;;;12.60;99.90;;;;;;10514465;28;20236;-83
2022/09/12 22:14:59;;;;;;;36.10;21.33;;;12.50;99.90;;;;;;10528366;28;20223;-83
2022/09/12 22:20:25;;;;;;;37.13;21.87;;;12.60;99.90;;;;;;10553231;28;20480;-82
2022/09/12 22:25:47;;;;;;;37.07;22.13;;;12.50;99.90;;;;;;10540147;28;20193;-83
2022/09/12 22:31:12;;;;;;;40.90;19.97;;;12.50;99.90;;;;;;10549713;28;20302;-82
2022/09/12 22:36:33;;;;;;;30.13;17.47;;;12.30;99.90;;;;;;10552351;28;20236;-82
2022/09/12 22:41:57;;;;;;;29.63;16.43;;;12.20;99.90;;;;;;10535206;28;20207;-82
2022/09/12 22:47:19;;;;;;;30.20;16.63;;;12.10;99.90;;;;;;10549112;28;20203;-83
2022/09/12 22:52:40;;;;;;;31.07;17.57;;;11.80;99.90;;;;;;10538104;28;20228;-84
2022/09/12 22:58:02;;;;;;;30.93;18.20;;;12.00;99.90;;;;;;10527524;28;20190;-85
2022/09/12 23:03:23;;;;;;;34.37;18.87;;;12.00;99.90;;;;;;10509845;28;20224;-84
2022/09/12 23:08:45;;;;;;;32.57;18.77;;;12.00;99.90;;;;;;10492993;28;20201;-84
2022/09/12 23:14:06;;;;;;;32.03;18.13;;;11.90;99.90;;;;;;10498195;28;20225;-83
2022/09/12 23:19:28;;;;;;;37.27;19.43;;;11.90;99.90;;;;;;10534306;28;20200;-83
2022/09/12 23:24:49;;;;;;;29.63;17.60;;;11.80;99.90;;;;;;10533745;28;20200;-84
2022/09/12 23:30:11;;;;;;;26.70;15.90;;;11.70;99.90;;;;;;10485781;28;20244;-84
2022/09/12 23:35:32;;;;;;;24.83;13.93;;;11.60;99.90;;;;;;10533304;28;20217;-83
2022/09/12 23:40:53;;;;;;;22.03;12.50;;;11.50;99.90;;;;;;10565785;28;20200;-84
2022/09/12 23:46:16;;;;;;;19.17;13.40;;;11.50;99.90;;;;;;10552406;28;20190;-84
2022/09/12 23:51:38;;;;;;;19.87;11.73;;;11.40;99.90;;;;;;10530581;28;20248;-84
2022/09/12 23:56:59;;;;;;;17.60;12.33;;;11.50;99.90;;;;;;10533279;28;20199;-84
